createdAt,value
2019-03-29T00:00:54.030Z,99656.30
2019-03-29T00:03:24.920Z,99653.71
2019-03-29T00:05:55.886Z,99656.28
2019-03-29T00:08:27.003Z,99662.31
2019-03-29T00:11:02.434Z,99658.41
2019-03-29T00:13:33.575Z,99658.37
2019-03-29T00:16:04.530Z,99646.69
2019-03-29T00:18:36.120Z,99645.39
2019-03-29T00:21:07.271Z,99649.25
2019-03-29T00:23:38.288Z,99647.92
2019-03-29T00:26:09.148Z,99647.02
2019-03-29T00:28:40.216Z,99645.72
2019-03-29T00:31:13.952Z,99644.86
2019-03-29T00:33:43.772Z,99643.52
2019-03-29T00:36:14.706Z,99642.66
2019-03-29T00:38:45.686Z,99637.04
2019-03-29T00:41:16.608Z,99642.22
2019-03-29T00:43:47.629Z,99637.47
2019-03-29T00:46:18.565Z,99642.66
2019-03-29T00:48:49.645Z,99635.31
2019-03-29T00:51:20.646Z,99635.34
2019-03-29T00:53:51.499Z,99634.09
2019-03-29T00:56:22.509Z,99634.98
2019-03-29T00:58:53.567Z,99631.14
2019-03-29T01:01:26.029Z,99635.48
2019-03-29T01:03:57.153Z,99632.89
2019-03-29T01:06:28.420Z,99633.33
2019-03-29T01:08:59.281Z,99629.88
2019-03-29T01:11:30.525Z,99633.27
2019-03-29T01:14:01.512Z,99625.88
2019-03-29T01:16:32.537Z,99630.20
2019-03-29T01:19:04.025Z,99624.59
2019-03-29T01:21:35.068Z,99628.94
2019-03-29T01:24:06.285Z,99624.22
2019-03-29T01:26:37.183Z,99625.15
2019-03-29T01:29:08.151Z,99626.47
2019-03-29T01:31:40.975Z,99622.17
2019-03-29T01:34:12.169Z,99623.92
2019-03-29T01:36:43.219Z,99622.67
2019-03-29T01:39:14.151Z,99621.38
2019-03-29T01:41:45.077Z,99622.70
2019-03-29T01:44:15.964Z,99615.80
2019-03-29T01:46:46.949Z,99620.98
2019-03-29T01:49:18.117Z,99622.28
2019-03-29T01:51:49.132Z,99617.96
2019-03-29T01:54:20.181Z,99614.94
2019-03-29T01:56:51.181Z,99615.78
2019-03-29T01:59:22.140Z,99613.22
2019-03-29T02:01:53.309Z,99604.16
2019-03-29T02:04:24.306Z,99601.16
2019-03-29T02:06:55.388Z,99607.16
2019-03-29T02:09:26.307Z,99608.03
2019-03-29T02:11:57.362Z,99602.01
2019-03-29T02:14:28.264Z,99602.02
2019-03-29T02:16:59.224Z,99596.83
2019-03-29T02:19:30.286Z,99598.13
2019-03-29T02:22:01.341Z,99596.39
2019-03-29T02:24:32.302Z,99593.38
2019-03-29T02:27:03.256Z,99590.34
2019-03-29T02:29:34.327Z,99588.19
2019-03-29T02:32:05.390Z,99582.16
2019-03-29T02:34:36.382Z,99578.27
2019-03-29T02:37:07.450Z,99579.58
2019-03-29T02:39:38.626Z,99578.69
2019-03-29T02:42:09.590Z,99579.56
2019-03-29T02:44:40.613Z,99577.38
2019-03-29T02:47:11.716Z,99573.94
2019-03-29T02:49:42.663Z,99575.23
2019-03-29T02:52:13.767Z,99580.39
2019-03-29T02:54:44.813Z,99581.27
2019-03-29T02:57:16.064Z,99573.95
2019-03-29T02:59:47.149Z,99579.58
2019-03-29T03:02:18.119Z,99574.41
2019-03-29T03:04:49.192Z,99567.52
2019-03-29T03:07:20.122Z,99573.09
2019-03-29T03:09:51.116Z,99571.34
2019-03-29T03:12:22.282Z,99570.88
2019-03-29T03:14:53.197Z,99571.73
2019-03-29T03:17:24.157Z,99576.02
2019-03-29T03:19:55.178Z,99567.83
2019-03-29T03:22:26.223Z,99576.89
2019-03-29T03:24:57.233Z,99579.48
2019-03-29T03:27:28.268Z,99577.75
2019-03-29T03:29:59.194Z,99579.05
2019-03-29T03:32:30.191Z,99574.33
2019-03-29T03:35:01.329Z,99577.34
2019-03-29T03:37:32.293Z,99576.93
2019-03-29T03:40:04.129Z,99585.15
2019-03-29T03:42:35.133Z,99585.59
2019-03-29T03:45:07.879Z,99579.97
2019-03-29T03:47:39.956Z,99585.59
2019-03-29T03:50:31.952Z,99585.16
2019-03-29T03:53:02.992Z,99585.16
2019-03-29T03:55:36.106Z,99584.72
2019-03-29T03:58:07.874Z,99583.02
2019-03-29T04:00:44.409Z,99586.02
2019-03-29T04:03:15.559Z,99584.30
2019-03-29T04:05:46.693Z,99586.90
2019-03-29T04:08:21.316Z,99580.84
2019-03-29T04:10:52.233Z,99579.98
2019-03-29T04:13:23.352Z,99579.13
2019-03-29T04:15:54.318Z,99578.23
2019-03-29T04:18:25.265Z,99576.50
2019-03-29T04:20:56.465Z,99576.06
2019-03-29T04:23:27.507Z,99582.55
2019-03-29T04:25:58.558Z,99585.97
2019-03-29T04:28:29.492Z,99583.36
2019-03-29T04:31:00.589Z,99585.52
2019-03-29T04:33:31.520Z,99587.22
2019-03-29T04:36:02.620Z,99574.70
2019-03-29T04:38:33.592Z,99579.86
2019-03-29T04:41:04.753Z,99578.50
2019-03-29T04:43:35.869Z,99581.92
2019-03-29T04:46:06.913Z,99582.31
2019-03-29T04:48:37.917Z,99583.17
2019-03-29T04:51:09.066Z,99575.88
2019-03-29T04:53:40.112Z,99579.39
2019-03-29T04:56:11.247Z,99574.27
2019-03-29T04:58:42.215Z,99582.06
2019-03-29T05:01:17.146Z,99579.50
2019-03-29T05:03:46.241Z,99582.55
2019-03-29T05:06:17.423Z,99583.40
2019-03-29T05:08:48.467Z,99582.99
2019-03-29T05:11:19.445Z,99581.26
2019-03-29T05:13:50.583Z,99582.98
2019-03-29T05:16:21.550Z,99576.11
2019-03-29T05:18:52.470Z,99582.14
2019-03-29T05:21:23.444Z,99585.16
2019-03-29T05:23:54.443Z,99584.31
2019-03-29T05:26:25.710Z,99579.98
2019-03-29T05:28:56.834Z,99586.89
2019-03-29T05:31:27.818Z,99580.88
2019-03-29T05:33:58.780Z,99586.90
2019-03-29T05:36:29.783Z,99587.77
2019-03-29T05:39:00.767Z,99578.25
2019-03-29T05:41:31.760Z,99579.09
2019-03-29T05:44:04.321Z,99581.68
2019-03-29T05:46:35.875Z,99583.41
2019-03-29T05:49:06.863Z,99575.63
2019-03-29T05:51:37.990Z,99582.98
2019-03-29T05:54:09.092Z,99585.97
2019-03-29T05:56:40.604Z,99582.09
2019-03-29T05:59:13.186Z,99576.88
2019-03-29T06:01:44.481Z,99582.50
2019-03-29T06:04:18.097Z,99581.20
2019-03-29T06:06:50.801Z,99579.48
2019-03-29T06:09:21.859Z,99578.06
2019-03-29T06:11:52.793Z,99580.98
2019-03-29T06:14:23.938Z,99575.17
2019-03-29T06:16:55.148Z,99571.61
2019-03-29T06:19:26.293Z,99571.05
2019-03-29T06:21:57.171Z,99566.59
2019-03-29T06:24:28.161Z,99565.16
2019-03-29T06:26:59.710Z,99561.17
2019-03-29T06:29:30.707Z,99560.63
2019-03-29T06:32:01.603Z,99560.97
2019-03-29T06:34:32.541Z,99552.20
2019-03-29T06:37:03.822Z,99547.52
2019-03-29T06:39:34.895Z,99551.43
2019-03-29T06:42:05.989Z,99548.47
2019-03-29T06:44:36.991Z,99547.04
2019-03-29T06:47:07.875Z,99534.70
2019-03-29T06:49:38.857Z,99540.42
2019-03-29T06:52:09.822Z,99543.61
2019-03-29T06:54:40.964Z,99539.89
2019-03-29T06:57:11.906Z,99543.93
2019-03-29T06:59:42.790Z,99544.55
2019-03-29T07:02:13.893Z,99547.60
2019-03-29T07:04:44.723Z,99539.50
2019-03-29T07:07:15.734Z,99547.09
2019-03-29T07:09:46.705Z,99549.83
2019-03-29T07:12:17.686Z,99543.21
2019-03-29T07:14:48.627Z,99544.13
2019-03-29T07:17:19.593Z,99547.26
2019-03-29T07:19:50.889Z,99542.64
2019-03-29T07:22:21.971Z,99542.58
2019-03-29T07:24:53.299Z,99537.84
2019-03-29T07:27:24.187Z,99539.41
2019-03-29T07:29:55.209Z,99536.99
2019-03-29T07:32:26.171Z,99537.61
2019-03-29T07:34:57.321Z,99530.98
2019-03-29T07:37:28.312Z,99529.31
2019-03-29T07:39:59.172Z,99526.95
2019-03-29T07:42:30.134Z,99526.34
2019-03-29T07:45:01.037Z,99525.30
2019-03-29T07:47:31.922Z,99521.75
2019-03-29T07:50:02.937Z,99526.75
2019-03-29T07:52:34.021Z,99521.96
2019-03-29T07:55:06.922Z,99520.43
2019-03-29T07:57:37.890Z,99524.05
2019-03-29T08:00:09.337Z,99519.05
2019-03-29T08:02:40.239Z,99522.28
2019-03-29T08:05:11.310Z,99515.16
2019-03-29T08:07:42.414Z,99512.05
2019-03-29T08:10:24.039Z,99507.07
2019-03-29T08:12:46.438Z,99507.08
2019-03-29T08:15:17.378Z,99495.16
2019-03-29T08:17:48.329Z,99498.16
2019-03-29T08:20:43.912Z,99498.72
2019-03-29T08:22:52.121Z,99496.42
2019-03-29T08:25:23.402Z,99496.34
2019-03-29T08:27:54.531Z,99487.62
2019-03-29T08:30:25.483Z,99486.33
2019-03-29T08:32:56.486Z,99481.30
2019-03-29T08:35:27.452Z,99477.77
2019-03-29T08:37:58.476Z,99471.90
2019-03-29T08:40:29.550Z,99476.48
2019-03-29T08:43:00.644Z,99476.75
2019-03-29T08:45:31.618Z,99480.49
2019-03-29T08:48:02.556Z,99486.58
2019-03-29T08:50:33.625Z,99482.81
2019-03-29T08:53:04.892Z,99480.31
2019-03-29T08:55:45.758Z,99481.13
2019-03-29T08:58:08.660Z,99473.34
2019-03-29T09:00:39.702Z,99477.15
2019-03-29T09:03:10.761Z,99473.19
2019-03-29T09:05:42.117Z,99472.98
2019-03-29T09:08:13.248Z,99472.75
2019-03-29T09:10:44.330Z,99474.98
2019-03-29T09:13:15.290Z,99471.71
2019-03-29T09:15:46.352Z,99473.39
2019-03-29T09:18:17.423Z,99463.51
2019-03-29T09:20:48.554Z,99456.41
2019-03-29T09:23:19.703Z,99452.73
2019-03-29T09:25:50.740Z,99452.58
2019-03-29T09:28:21.925Z,99452.94
2019-03-29T09:30:56.222Z,99456.34
2019-03-29T09:33:25.626Z,99454.02
2019-03-29T09:35:56.648Z,99451.94
2019-03-29T09:38:27.800Z,99448.56
2019-03-29T09:40:59.372Z,99451.63
2019-03-29T09:43:30.325Z,99445.99
2019-03-29T09:46:03.319Z,99447.36
2019-03-29T09:48:34.696Z,99448.94
2019-03-29T09:51:06.070Z,99449.39
2019-03-29T09:53:40.853Z,99445.41
2019-03-29T09:56:10.022Z,99440.31
2019-03-29T09:58:41.063Z,99439.08
2019-03-29T10:01:12.068Z,99442.92
2019-03-29T10:03:43.207Z,99440.77
2019-03-29T10:06:15.411Z,99436.42
2019-03-29T10:08:46.602Z,99438.78
2019-03-29T10:11:17.455Z,99436.07
2019-03-29T10:13:48.519Z,99425.38
2019-03-29T10:16:19.578Z,99431.96
2019-03-29T10:18:50.507Z,99422.26
2019-03-29T10:21:21.663Z,99416.80
2019-03-29T10:23:53.373Z,99419.58
2019-03-29T10:26:24.332Z,99421.41
2019-03-29T10:28:56.090Z,99413.46
2019-03-29T10:31:32.400Z,99419.67
2019-03-29T10:34:00.200Z,99414.23
2019-03-29T10:36:31.159Z,99411.97
2019-03-29T10:39:02.600Z,99402.72
2019-03-29T10:41:34.463Z,99408.70
2019-03-29T10:44:06.453Z,99404.00
2019-03-29T10:46:37.467Z,99405.70
2019-03-29T10:49:08.515Z,99397.90
2019-03-29T10:51:39.663Z,99398.81
2019-03-29T10:54:10.623Z,99388.20
2019-03-29T10:56:41.815Z,99393.52
2019-03-29T10:59:26.375Z,99384.64
2019-03-29T11:01:45.507Z,99400.05
2019-03-29T11:04:16.632Z,99394.06
2019-03-29T11:06:47.671Z,99396.41
2019-03-29T11:09:18.732Z,99401.23
2019-03-29T11:11:49.734Z,99396.60
2019-03-29T11:14:20.814Z,99402.48
2019-03-29T11:16:51.806Z,99397.40
2019-03-29T11:19:23.131Z,99400.73
2019-03-29T11:21:54.368Z,99398.56
2019-03-29T11:24:25.440Z,99392.50
2019-03-29T11:26:56.496Z,99388.54
2019-03-29T11:29:27.711Z,99387.23
2019-03-29T11:31:58.678Z,99391.64
2019-03-29T11:34:29.721Z,99381.59
2019-03-29T11:37:00.938Z,99379.61
2019-03-29T11:39:31.945Z,99371.66
2019-03-29T11:42:03.582Z,99372.26
2019-03-29T11:44:34.808Z,99369.14
2019-03-29T11:47:06.262Z,99363.30
2019-03-29T11:49:37.351Z,99357.88
2019-03-29T11:52:08.543Z,99349.66
2019-03-29T11:54:39.897Z,99347.43
2019-03-29T11:57:10.825Z,99337.80
2019-03-29T11:59:41.827Z,99337.28
2019-03-29T12:02:12.796Z,99327.03
2019-03-29T12:04:43.776Z,99329.61
2019-03-29T12:07:14.814Z,99324.52
2019-03-29T12:09:45.796Z,99322.02
2019-03-29T12:12:16.670Z,99325.45
2019-03-29T12:14:47.757Z,99316.94
2019-03-29T12:17:18.822Z,99306.27
2019-03-29T12:19:49.818Z,99305.25
2019-03-29T12:22:20.854Z,99311.12
2019-03-29T12:24:52.087Z,99308.45
2019-03-29T12:27:23.323Z,99306.67
2019-03-29T12:29:54.584Z,99297.68
2019-03-29T12:32:25.723Z,99300.75
2019-03-29T12:34:56.726Z,99287.18
2019-03-29T12:37:28.345Z,99282.76
2019-03-29T12:39:59.500Z,99295.52
2019-03-29T12:42:33.945Z,99289.64
2019-03-29T12:45:07.740Z,99286.86
2019-03-29T12:47:38.689Z,99273.30
2019-03-29T12:50:10.008Z,99272.79
2019-03-29T12:52:41.022Z,99277.45
2019-03-29T12:55:12.550Z,99274.52
2019-03-29T12:57:44.018Z,99264.94
2019-03-29T13:00:15.759Z,99271.02
2019-03-29T13:02:46.842Z,99259.37
2019-03-29T13:05:18.541Z,99262.05
2019-03-29T13:07:52.907Z,99253.98
2019-03-29T13:10:23.221Z,99255.88
2019-03-29T13:12:54.299Z,99248.88
2019-03-29T13:15:27.251Z,99244.84
2019-03-29T13:17:58.317Z,99248.98
2019-03-29T13:20:32.105Z,99246.11
2019-03-29T13:23:03.171Z,99229.63
2019-03-29T13:25:34.415Z,99233.61
2019-03-29T13:28:05.602Z,99222.70
2019-03-29T13:30:40.112Z,99221.25
2019-03-29T13:33:13.295Z,99211.36
2019-03-29T13:35:47.188Z,99207.00
2019-03-29T13:38:20.441Z,99203.70
2019-03-29T13:40:50.883Z,99200.45
2019-03-29T13:43:21.906Z,99193.47
2019-03-29T13:45:53.029Z,99192.64
2019-03-29T13:48:24.125Z,99184.89
2019-03-29T13:50:55.378Z,99180.75
2019-03-29T13:53:26.421Z,99172.49
2019-03-29T13:55:57.413Z,99164.72
2019-03-29T13:58:28.403Z,99166.59
2019-03-29T14:00:59.720Z,99167.75
2019-03-29T14:03:31.449Z,99161.23
2019-03-29T14:06:02.713Z,99149.41
2019-03-29T14:08:33.833Z,99149.41
2019-03-29T14:11:05.008Z,99145.69
2019-03-29T14:13:36.216Z,99125.23
2019-03-29T14:16:07.501Z,99128.88
2019-03-29T14:18:38.676Z,99122.95
2019-03-29T14:21:09.811Z,99133.65
2019-03-29T14:23:40.951Z,99133.65
2019-03-29T14:26:11.948Z,99135.56
2019-03-29T14:28:43.017Z,99133.94
2019-03-29T14:31:14.237Z,99131.87
2019-03-29T14:33:45.519Z,99131.42
2019-03-29T14:36:16.816Z,99127.30
2019-03-29T14:38:48.491Z,99129.17
2019-03-29T14:41:19.447Z,99122.31
2019-03-29T14:43:52.309Z,99117.99
2019-03-29T14:46:23.478Z,99119.58
2019-03-29T14:48:54.597Z,99122.16
2019-03-29T14:51:25.856Z,99118.84
2019-03-29T14:53:57.219Z,99120.60
2019-03-29T14:56:28.931Z,99119.52
2019-03-29T14:58:59.970Z,99111.95
2019-03-29T15:01:30.959Z,99107.39
2019-03-29T15:04:02.066Z,99102.78
2019-03-29T15:06:33.244Z,99100.14
2019-03-29T15:09:06.501Z,99096.57
2019-03-29T15:11:37.575Z,99094.73
2019-03-29T15:14:09.053Z,99096.58
2019-03-29T15:16:40.024Z,99087.05
2019-03-29T15:19:10.964Z,99076.67
2019-03-29T15:21:41.924Z,99077.51
2019-03-29T15:24:12.917Z,99075.56
2019-03-29T15:26:44.436Z,99076.91
2019-03-29T15:29:15.848Z,99070.87
2019-03-29T15:31:46.884Z,99073.36
2019-03-29T15:34:20.586Z,99069.64
2019-03-29T15:36:53.133Z,99069.04
2019-03-29T15:39:24.145Z,99063.77
2019-03-29T15:41:55.255Z,99067.81
2019-03-29T15:44:27.790Z,99062.44
2019-03-29T15:46:58.825Z,99064.70
2019-03-29T15:49:29.877Z,99061.06
2019-03-29T15:52:00.779Z,99066.17
2019-03-29T15:54:32.487Z,99068.44
2019-03-29T15:57:04.018Z,99067.69
2019-03-29T15:59:35.048Z,99065.27
2019-03-29T16:02:05.956Z,99066.03
2019-03-29T16:04:37.015Z,99061.66
2019-03-29T16:07:08.099Z,99053.77
2019-03-29T16:09:39.442Z,99063.28
2019-03-29T16:12:10.954Z,99055.09
2019-03-29T16:14:42.057Z,99050.22
2019-03-29T16:17:14.836Z,99056.22
2019-03-29T16:19:46.836Z,99047.87
2019-03-29T16:22:17.993Z,99047.84
2019-03-29T16:24:49.061Z,99043.00
2019-03-29T16:27:20.113Z,99046.91
2019-03-29T16:29:51.124Z,99045.12
2019-03-29T16:32:22.360Z,99039.34
2019-03-29T16:34:53.354Z,99043.58
2019-03-29T16:37:24.682Z,99040.37
2019-03-29T16:39:55.627Z,99039.30
2019-03-29T16:42:26.575Z,99039.60
2019-03-29T16:44:57.793Z,99039.79
2019-03-29T16:47:29.534Z,99038.52
2019-03-29T16:50:01.468Z,99040.20
2019-03-29T16:52:32.563Z,99042.55
2019-03-29T16:55:14.311Z,99039.71
2019-03-29T16:57:45.753Z,99039.83
2019-03-29T17:00:20.002Z,99036.42
2019-03-29T17:02:51.038Z,99041.73
2019-03-29T17:05:22.184Z,99033.39
2019-03-29T17:07:53.432Z,99030.11
2019-03-29T17:10:24.756Z,99032.76
2019-03-29T17:12:55.767Z,99036.81
2019-03-29T17:15:26.907Z,99032.03
2019-03-29T17:17:57.922Z,99037.33
2019-03-29T17:20:29.150Z,99031.77
2019-03-29T17:23:01.897Z,99029.47
2019-03-29T17:25:33.026Z,99032.36
2019-03-29T17:28:04.122Z,99033.95
2019-03-29T17:30:38.242Z,99029.31
2019-03-29T17:33:09.196Z,99037.59
2019-03-29T17:35:40.166Z,99040.59
2019-03-29T17:41:03.142Z,99040.05
2019-03-29T17:43:34.688Z,99044.55
2019-03-29T17:46:16.143Z,99046.13
2019-03-29T17:48:39.551Z,99052.12
2019-03-29T17:51:10.572Z,99048.75
2019-03-29T17:53:41.701Z,99050.70
2019-03-29T17:56:12.690Z,99057.77
2019-03-29T17:58:43.737Z,99055.73
2019-03-29T18:01:14.679Z,99057.34
2019-03-29T18:03:45.652Z,99058.20
2019-03-29T18:06:16.730Z,99057.50
2019-03-29T18:08:47.682Z,99062.24
2019-03-29T18:11:18.801Z,99059.34
2019-03-29T18:13:50.038Z,99063.09
2019-03-29T18:16:30.651Z,99067.98
2019-03-29T18:18:53.904Z,99068.95
2019-03-29T18:21:25.035Z,99078.47
2019-03-29T18:23:56.131Z,99071.84
2019-03-29T18:26:27.100Z,99079.41
2019-03-29T18:28:58.260Z,99080.13
2019-03-29T18:31:29.251Z,99079.53
2019-03-29T18:34:00.893Z,99080.73
2019-03-29T18:36:32.301Z,99084.09
2019-03-29T18:39:04.530Z,99088.20
2019-03-29T18:41:35.609Z,99086.48
2019-03-29T18:44:06.613Z,99087.09
2019-03-29T18:46:44.490Z,99083.46
2019-03-29T18:49:10.585Z,99088.02
2019-03-29T18:51:41.642Z,99088.66
2019-03-29T18:54:12.623Z,99088.86
2019-03-29T18:56:43.578Z,99092.71
2019-03-29T18:59:14.612Z,99098.83
2019-03-29T19:01:45.766Z,99104.67
2019-03-29T19:04:16.764Z,99100.50
2019-03-29T19:06:48.229Z,99100.47
2019-03-29T19:09:19.412Z,99095.14
2019-03-29T19:11:50.571Z,99091.08
2019-03-29T19:14:21.629Z,99092.89
2019-03-29T19:16:58.836Z,99097.46
2019-03-29T19:19:25.165Z,99098.67
2019-03-29T19:21:56.272Z,99098.91
2019-03-29T19:24:28.287Z,99096.61
2019-03-29T19:26:59.303Z,99098.88
2019-03-29T19:29:30.224Z,99099.02
2019-03-29T19:32:01.216Z,99098.81
2019-03-29T19:34:32.175Z,99100.84
2019-03-29T19:37:03.304Z,99102.52
2019-03-29T19:39:34.339Z,99101.94
2019-03-29T19:42:05.376Z,99097.02
2019-03-29T19:44:36.357Z,99100.77
2019-03-29T19:47:13.234Z,99099.89
2019-03-29T19:49:40.030Z,99093.30
2019-03-29T19:52:11.081Z,99093.99
2019-03-29T19:54:42.199Z,99084.77
2019-03-29T19:57:13.391Z,99091.83
2019-03-29T19:59:47.930Z,99091.36
2019-03-29T20:02:17.339Z,99094.37
2019-03-29T20:04:48.413Z,99098.98
2019-03-29T20:07:20.440Z,99098.75
2019-03-29T20:09:51.691Z,99099.91
2019-03-29T20:12:25.190Z,99095.20
2019-03-29T20:14:55.280Z,99097.95
2019-03-29T20:17:27.597Z,99091.12
2019-03-29T20:19:58.948Z,99090.86
2019-03-29T20:22:29.871Z,99093.06
2019-03-29T20:25:01.061Z,99096.91
2019-03-29T20:27:32.215Z,99095.66
2019-03-29T20:30:12.223Z,99094.02
2019-03-29T20:32:43.154Z,99085.38
2019-03-29T20:35:14.400Z,99091.57
2019-03-29T20:37:45.508Z,99094.23
2019-03-29T20:40:16.544Z,99084.39
2019-03-29T20:42:47.662Z,99089.66
2019-03-29T20:45:18.827Z,99088.07
2019-03-29T20:47:51.991Z,99088.67
2019-03-29T20:50:23.114Z,99086.18
2019-03-29T20:52:54.254Z,99086.20
2019-03-29T20:55:25.705Z,99085.04
2019-03-29T20:57:56.903Z,99086.00
2019-03-29T21:00:27.870Z,99087.72
2019-03-29T21:02:59.241Z,99082.29
2019-03-29T21:05:30.318Z,99079.88
2019-03-29T21:08:05.457Z,99083.36
2019-03-29T21:10:36.424Z,99083.46
2019-03-29T21:13:09.569Z,99077.50
2019-03-29T21:15:42.442Z,99081.82
2019-03-29T21:18:17.310Z,99079.36
2019-03-29T21:20:47.544Z,99081.18
2019-03-29T21:23:18.473Z,99081.64
2019-03-29T21:25:49.440Z,99077.38
2019-03-29T21:28:20.341Z,99074.42
2019-03-29T21:30:51.299Z,99070.16
2019-03-29T21:33:22.237Z,99069.41
2019-03-29T21:35:53.313Z,99068.95
2019-03-29T21:38:25.316Z,99065.20
2019-03-29T21:40:56.390Z,99068.73
2019-03-29T21:43:27.346Z,99065.30
2019-03-29T21:45:58.444Z,99066.58
2019-03-29T21:48:29.623Z,99067.12
2019-03-29T21:51:00.606Z,99060.66
2019-03-29T21:53:31.633Z,99063.55
2019-03-29T21:56:03.914Z,99060.47
2019-03-29T21:58:36.681Z,99053.36
2019-03-29T22:01:08.444Z,99058.30
2019-03-29T22:03:39.462Z,99058.80
2019-03-29T22:06:10.526Z,99061.75
2019-03-29T22:08:41.500Z,99057.03
2019-03-29T22:11:12.463Z,99056.20
2019-03-29T22:13:43.457Z,99052.27
2019-03-29T22:16:14.597Z,99053.48
2019-03-29T22:18:45.693Z,99053.92
2019-03-29T22:21:16.713Z,99048.52
2019-03-29T22:23:47.709Z,99050.36
2019-03-29T22:26:18.751Z,99058.31
2019-03-29T22:28:51.367Z,99055.39
2019-03-29T22:31:23.756Z,99050.67
2019-03-29T22:33:57.033Z,99052.06
2019-03-29T22:36:28.082Z,99049.98
2019-03-29T22:38:58.945Z,99051.72
2019-03-29T22:41:29.911Z,99049.13
2019-03-29T22:44:00.910Z,99048.73
2019-03-29T22:46:31.865Z,99049.59
2019-03-29T22:49:02.771Z,99047.06
2019-03-29T22:51:33.783Z,99044.10
2019-03-29T22:54:04.815Z,99043.72
2019-03-29T22:56:35.853Z,99040.28
2019-03-29T22:59:06.889Z,99035.97
2019-03-29T23:01:40.917Z,99029.95
2019-03-29T23:04:11.953Z,99034.30
2019-03-29T23:06:43.005Z,99038.64
2019-03-29T23:09:14.036Z,99031.80
2019-03-29T23:11:44.916Z,99031.41
2019-03-29T23:14:15.803Z,99022.41
2019-03-29T23:16:46.757Z,99021.55
2019-03-29T23:19:17.786Z,99024.16
2019-03-29T23:21:48.671Z,99023.73
2019-03-29T23:24:19.567Z,99030.22
2019-03-29T23:26:50.552Z,99028.50
2019-03-29T23:29:21.649Z,99034.98
2019-03-29T23:31:52.627Z,99034.55
2019-03-29T23:34:23.729Z,99031.56
2019-03-29T23:36:54.727Z,99027.27
2019-03-29T23:39:25.816Z,99026.39
2019-03-29T23:41:56.864Z,99022.95
2019-03-29T23:44:27.854Z,99022.98
2019-03-29T23:46:58.980Z,99018.25
2019-03-29T23:49:30.119Z,99013.09
2019-03-29T23:52:01.125Z,99018.70
2019-03-29T23:54:32.068Z,99009.27
2019-03-29T23:57:03.137Z,99009.70
2019-03-29T23:59:34.039Z,99006.25
